sensor_id;sensor_type;location;lat;lon;timestamp;P1;durP1;ratioP1;P2;durP2;ratioP2
2019;SDS011;1014;51.960;8.542;2024-02-15T00:02:03;50.77;;;46.87;;
2019;SDS011;1014;51.960;8.542;2024-02-15T00:04:32;55.87;;;51.40;;
2019;SDS011;1014;51.960;8.542;2024-02-15T00:06:59;57.53;;;52.90;;
2019;SDS011;1014;51.960;8.542;2024-02-15T00:09:27;55.67;;;51.17;;
2019;SDS011;1014;51.960;8.542;2024-02-15T00:11:54;49.20;;;45.10;;
2019;SDS011;1014;51.960;8.542;2024-02-15T00:14:21;54.77;;;50.07;;
2019;SDS011;1014;51.960;8.542;2024-02-15T00:16:47;53.30;;;49.03;;
2019;SDS011;1014;51.960;8.542;2024-02-15T00:19:14;48.17;;;44.27;;
2019;SDS011;1014;51.960;8.542;2024-02-15T00:21:43;53.00;;;48.50;;
2019;SDS011;1014;51.960;8.542;2024-02-15T00:24:12;55.90;;;51.30;;
2019;SDS011;1014;51.960;8.542;2024-02-15T00:26:40;53.17;;;48.93;;
2019;SDS011;1014;51.960;8.542;2024-02-15T00:29:07;48.07;;;44.37;;
2019;SDS011;1014;51.960;8.542;2024-02-15T00:31:34;53.83;;;49.17;;
2019;SDS011;1014;51.960;8.542;2024-02-15T00:34:03;51.67;;;47.17;;
2019;SDS011;1014;51.960;8.542;2024-02-15T00:36:30;53.57;;;49.23;;
2019;SDS011;1014;51.960;8.542;2024-02-15T00:38:59;51.47;;;46.97;;
2019;SDS011;1014;51.960;8.542;2024-02-15T00:41:26;51.77;;;46.90;;
2019;SDS011;1014;51.960;8.542;2024-02-15T00:43:53;52.23;;;47.77;;
2019;SDS011;1014;51.960;8.542;2024-02-15T00:46:20;57.93;;;52.40;;
2019;SDS011;1014;51.960;8.542;2024-02-15T00:48:47;56.23;;;50.83;;
2019;SDS011;1014;51.960;8.542;2024-02-15T00:51:14;50.23;;;45.93;;
2019;SDS011;1014;51.960;8.542;2024-02-15T00:53:41;54.30;;;49.33;;
2019;SDS011;1014;51.960;8.542;2024-02-15T00:56:10;46.87;;;43.07;;
2019;SDS011;1014;51.960;8.542;2024-02-15T00:58:37;50.10;;;45.67;;
2019;SDS011;1014;51.960;8.542;2024-02-15T01:01:04;51.87;;;47.30;;
2019;SDS011;1014;51.960;8.542;2024-02-15T01:03:31;53.27;;;49.13;;
2019;SDS011;1014;51.960;8.542;2024-02-15T01:05:59;57.67;;;52.90;;
2019;SDS011;1014;51.960;8.542;2024-02-15T01:08:27;62.33;;;56.83;;
2019;SDS011;1014;51.960;8.542;2024-02-15T01:10:54;54.57;;;50.27;;
2019;SDS011;1014;51.960;8.542;2024-02-15T01:13:23;55.87;;;51.10;;
2019;SDS011;1014;51.960;8.542;2024-02-15T01:15:50;59.53;;;54.13;;
2019;SDS011;1014;51.960;8.542;2024-02-15T01:18:17;60.23;;;54.70;;
2019;SDS011;1014;51.960;8.542;2024-02-15T01:20:44;59.83;;;55.10;;
2019;SDS011;1014;51.960;8.542;2024-02-15T01:23:11;50.27;;;46.47;;
2019;SDS011;1014;51.960;8.542;2024-02-15T01:25:39;54.37;;;49.73;;
2019;SDS011;1014;51.960;8.542;2024-02-15T01:28:06;58.53;;;53.20;;
2019;SDS011;1014;51.960;8.542;2024-02-15T01:30:34;57.70;;;52.93;;
2019;SDS011;1014;51.960;8.542;2024-02-15T01:33:02;60.60;;;55.00;;
2019;SDS011;1014;51.960;8.542;2024-02-15T01:35:30;58.53;;;53.53;;
2019;SDS011;1014;51.960;8.542;2024-02-15T01:37:57;59.73;;;54.50;;
2019;SDS011;1014;51.960;8.542;2024-02-15T01:40:23;61.50;;;56.30;;
2019;SDS011;1014;51.960;8.542;2024-02-15T01:42:50;51.90;;;48.23;;
2019;SDS011;1014;51.960;8.542;2024-02-15T01:45:17;54.53;;;50.30;;
2019;SDS011;1014;51.960;8.542;2024-02-15T01:47:45;60.23;;;54.73;;
2019;SDS011;1014;51.960;8.542;2024-02-15T01:50:13;62.47;;;57.23;;
2019;SDS011;1014;51.960;8.542;2024-02-15T01:52:41;51.07;;;47.57;;
2019;SDS011;1014;51.960;8.542;2024-02-15T01:55:12;56.30;;;52.00;;
2019;SDS011;1014;51.960;8.542;2024-02-15T01:57:40;58.60;;;53.90;;
2019;SDS011;1014;51.960;8.542;2024-02-15T02:00:11;55.13;;;50.70;;
2019;SDS011;1014;51.960;8.542;2024-02-15T02:02:39;51.93;;;47.73;;
2019;SDS011;1014;51.960;8.542;2024-02-15T02:05:07;58.03;;;52.67;;
2019;SDS011;1014;51.960;8.542;2024-02-15T02:07:35;54.77;;;49.77;;
2019;SDS011;1014;51.960;8.542;2024-02-15T02:10:02;54.50;;;49.40;;
2019;SDS011;1014;51.960;8.542;2024-02-15T02:15:32;58.87;;;53.40;;
2019;SDS011;1014;51.960;8.542;2024-02-15T02:18:00;53.27;;;48.87;;
2019;SDS011;1014;51.960;8.542;2024-02-15T02:20:28;51.50;;;47.40;;
2019;SDS011;1014;51.960;8.542;2024-02-15T02:23:01;50.23;;;46.53;;
2019;SDS011;1014;51.960;8.542;2024-02-15T02:25:33;52.67;;;48.87;;
2019;SDS011;1014;51.960;8.542;2024-02-15T02:28:00;57.60;;;52.67;;
2019;SDS011;1014;51.960;8.542;2024-02-15T02:30:27;56.17;;;51.50;;
2019;SDS011;1014;51.960;8.542;2024-02-15T02:32:55;62.67;;;57.53;;
2019;SDS011;1014;51.960;8.542;2024-02-15T02:35:24;60.43;;;55.07;;
2019;SDS011;1014;51.960;8.542;2024-02-15T02:37:51;62.37;;;56.77;;
2019;SDS011;1014;51.960;8.542;2024-02-15T02:40:19;58.53;;;53.20;;
2019;SDS011;1014;51.960;8.542;2024-02-15T02:42:48;56.03;;;51.33;;
2019;SDS011;1014;51.960;8.542;2024-02-15T02:45:16;56.83;;;51.93;;
2019;SDS011;1014;51.960;8.542;2024-02-15T02:47:44;60.17;;;54.70;;
2019;SDS011;1014;51.960;8.542;2024-02-15T02:50:11;59.30;;;53.90;;
2019;SDS011;1014;51.960;8.542;2024-02-15T02:52:39;60.97;;;55.30;;
2019;SDS011;1014;51.960;8.542;2024-02-15T02:55:06;55.47;;;51.03;;
2019;SDS011;1014;51.960;8.542;2024-02-15T02:57:34;60.80;;;55.43;;
2019;SDS011;1014;51.960;8.542;2024-02-15T03:00:04;67.33;;;59.90;;
2019;SDS011;1014;51.960;8.542;2024-02-15T03:02:33;60.63;;;54.93;;
2019;SDS011;1014;51.960;8.542;2024-02-15T03:05:01;60.50;;;54.77;;
2019;SDS011;1014;51.960;8.542;2024-02-15T03:07:29;62.97;;;56.83;;
2019;SDS011;1014;51.960;8.542;2024-02-15T03:09:56;58.13;;;53.17;;
2019;SDS011;1014;51.960;8.542;2024-02-15T03:12:23;58.67;;;53.47;;
2019;SDS011;1014;51.960;8.542;2024-02-15T03:14:51;61.90;;;56.50;;
2019;SDS011;1014;51.960;8.542;2024-02-15T03:17:21;66.73;;;60.53;;
2019;SDS011;1014;51.960;8.542;2024-02-15T03:19:49;59.80;;;54.70;;
2019;SDS011;1014;51.960;8.542;2024-02-15T03:22:16;67.67;;;61.47;;
2019;SDS011;1014;51.960;8.542;2024-02-15T03:24:43;71.67;;;64.57;;
2019;SDS011;1014;51.960;8.542;2024-02-15T03:27:10;69.33;;;62.23;;
2019;SDS011;1014;51.960;8.542;2024-02-15T03:29:37;66.50;;;60.23;;
2019;SDS011;1014;51.960;8.542;2024-02-15T03:32:05;70.67;;;64.17;;
2019;SDS011;1014;51.960;8.542;2024-02-15T03:34:33;64.97;;;59.37;;
2019;SDS011;1014;51.960;8.542;2024-02-15T03:37:00;67.77;;;61.33;;
2019;SDS011;1014;51.960;8.542;2024-02-15T03:39:29;72.23;;;65.77;;
2019;SDS011;1014;51.960;8.542;2024-02-15T03:41:57;66.17;;;59.90;;
2019;SDS011;1014;51.960;8.542;2024-02-15T03:44:25;65.10;;;59.43;;
2019;SDS011;1014;51.960;8.542;2024-02-15T03:46:51;67.97;;;61.67;;
2019;SDS011;1014;51.960;8.542;2024-02-15T03:49:20;66.67;;;60.17;;
2019;SDS011;1014;51.960;8.542;2024-02-15T03:51:49;69.97;;;63.23;;
2019;SDS011;1014;51.960;8.542;2024-02-15T03:54:16;72.73;;;65.20;;
2019;SDS011;1014;51.960;8.542;2024-02-15T03:56:46;69.17;;;62.67;;
2019;SDS011;1014;51.960;8.542;2024-02-15T03:59:16;73.37;;;66.03;;
2019;SDS011;1014;51.960;8.542;2024-02-15T04:01:44;60.77;;;55.97;;
2019;SDS011;1014;51.960;8.542;2024-02-15T04:04:12;65.53;;;59.97;;
2019;SDS011;1014;51.960;8.542;2024-02-15T04:06:39;70.47;;;64.87;;
2019;SDS011;1014;51.960;8.542;2024-02-15T04:09:09;77.87;;;70.57;;
2019;SDS011;1014;51.960;8.542;2024-02-15T04:11:36;78.70;;;71.40;;
2019;SDS011;1014;51.960;8.542;2024-02-15T04:14:03;75.20;;;69.10;;
2019;SDS011;1014;51.960;8.542;2024-02-15T04:16:30;80.23;;;72.13;;
2019;SDS011;1014;51.960;8.542;2024-02-15T04:18:58;76.20;;;68.80;;
2019;SDS011;1014;51.960;8.542;2024-02-15T04:21:26;75.23;;;67.43;;
2019;SDS011;1014;51.960;8.542;2024-02-15T04:23:53;71.77;;;65.07;;
2019;SDS011;1014;51.960;8.542;2024-02-15T04:26:21;74.27;;;66.77;;
2019;SDS011;1014;51.960;8.542;2024-02-15T04:28:51;71.10;;;64.47;;
2019;SDS011;1014;51.960;8.542;2024-02-15T04:31:19;79.50;;;72.70;;
2019;SDS011;1014;51.960;8.542;2024-02-15T04:33:51;79.00;;;71.90;;
2019;SDS011;1014;51.960;8.542;2024-02-15T04:36:18;77.37;;;71.20;;
2019;SDS011;1014;51.960;8.542;2024-02-15T04:38:48;77.77;;;71.00;;
2019;SDS011;1014;51.960;8.542;2024-02-15T04:41:15;78.00;;;70.23;;
2019;SDS011;1014;51.960;8.542;2024-02-15T04:43:46;80.97;;;72.83;;
2019;SDS011;1014;51.960;8.542;2024-02-15T04:46:13;80.00;;;73.00;;
2019;SDS011;1014;51.960;8.542;2024-02-15T04:48:40;85.40;;;76.50;;
2019;SDS011;1014;51.960;8.542;2024-02-15T04:51:07;81.43;;;73.97;;
2019;SDS011;1014;51.960;8.542;2024-02-15T04:53:35;77.90;;;71.40;;
2019;SDS011;1014;51.960;8.542;2024-02-15T04:56:03;76.47;;;69.50;;
2019;SDS011;1014;51.960;8.542;2024-02-15T04:58:36;85.27;;;77.17;;
2019;SDS011;1014;51.960;8.542;2024-02-15T05:01:04;82.27;;;74.63;;
2019;SDS011;1014;51.960;8.542;2024-02-15T05:03:32;84.93;;;74.90;;
2019;SDS011;1014;51.960;8.542;2024-02-15T05:06:00;81.07;;;72.80;;
2019;SDS011;1014;51.960;8.542;2024-02-15T05:08:30;78.77;;;70.60;;
2019;SDS011;1014;51.960;8.542;2024-02-15T05:10:57;91.47;;;80.80;;
2019;SDS011;1014;51.960;8.542;2024-02-15T05:13:24;81.53;;;74.17;;
2019;SDS011;1014;51.960;8.542;2024-02-15T05:15:51;78.60;;;72.00;;
2019;SDS011;1014;51.960;8.542;2024-02-15T05:18:20;82.97;;;74.57;;
2019;SDS011;1014;51.960;8.542;2024-02-15T05:20:47;84.33;;;75.73;;
2019;SDS011;1014;51.960;8.542;2024-02-15T05:23:14;84.17;;;75.77;;
2019;SDS011;1014;51.960;8.542;2024-02-15T05:25:43;80.83;;;74.07;;
2019;SDS011;1014;51.960;8.542;2024-02-15T05:28:10;85.23;;;76.07;;
2019;SDS011;1014;51.960;8.542;2024-02-15T05:30:37;85.77;;;75.37;;
2019;SDS011;1014;51.960;8.542;2024-02-15T05:33:04;82.83;;;75.23;;
2019;SDS011;1014;51.960;8.542;2024-02-15T05:35:36;84.93;;;77.00;;
2019;SDS011;1014;51.960;8.542;2024-02-15T05:38:04;87.63;;;78.80;;
2019;SDS011;1014;51.960;8.542;2024-02-15T05:40:32;88.97;;;80.37;;
2019;SDS011;1014;51.960;8.542;2024-02-15T05:42:59;84.10;;;76.30;;
2019;SDS011;1014;51.960;8.542;2024-02-15T05:45:28;90.80;;;82.20;;
2019;SDS011;1014;51.960;8.542;2024-02-15T05:47:57;82.83;;;75.03;;
2019;SDS011;1014;51.960;8.542;2024-02-15T05:50:25;82.83;;;75.13;;
2019;SDS011;1014;51.960;8.542;2024-02-15T05:52:55;86.27;;;78.07;;
2019;SDS011;1014;51.960;8.542;2024-02-15T05:55:23;82.73;;;76.13;;
2019;SDS011;1014;51.960;8.542;2024-02-15T05:57:51;79.27;;;72.77;;
2019;SDS011;1014;51.960;8.542;2024-02-15T06:00:18;88.93;;;78.77;;
2019;SDS011;1014;51.960;8.542;2024-02-15T06:02:45;79.60;;;73.73;;
2019;SDS011;1014;51.960;8.542;2024-02-15T06:05:12;85.83;;;78.23;;
2019;SDS011;1014;51.960;8.542;2024-02-15T06:07:41;75.37;;;69.03;;
2019;SDS011;1014;51.960;8.542;2024-02-15T06:10:10;73.70;;;67.63;;
2019;SDS011;1014;51.960;8.542;2024-02-15T06:12:38;73.20;;;67.43;;
2019;SDS011;1014;51.960;8.542;2024-02-15T06:15:05;77.00;;;70.80;;
2019;SDS011;1014;51.960;8.542;2024-02-15T06:17:39;71.07;;;65.43;;
2019;SDS011;1014;51.960;8.542;2024-02-15T06:20:06;71.83;;;66.30;;
2019;SDS011;1014;51.960;8.542;2024-02-15T06:22:34;71.27;;;65.37;;
2019;SDS011;1014;51.960;8.542;2024-02-15T06:25:01;76.80;;;69.77;;
2019;SDS011;1014;51.960;8.542;2024-02-15T06:27:30;72.00;;;66.00;;
2019;SDS011;1014;51.960;8.542;2024-02-15T06:29:57;76.83;;;70.87;;
2019;SDS011;1014;51.960;8.542;2024-02-15T06:32:41;76.57;;;70.60;;
2019;SDS011;1014;51.960;8.542;2024-02-15T06:35:26;78.83;;;73.07;;
2019;SDS011;1014;51.960;8.542;2024-02-15T06:38:11;83.27;;;77.50;;
2019;SDS011;1014;51.960;8.542;2024-02-15T06:40:56;77.57;;;71.93;;
2019;SDS011;1014;51.960;8.542;2024-02-15T06:43:24;83.93;;;77.77;;
2019;SDS011;1014;51.960;8.542;2024-02-15T06:45:51;77.23;;;72.03;;
2019;SDS011;1014;51.960;8.542;2024-02-15T06:48:18;78.57;;;72.73;;
2019;SDS011;1014;51.960;8.542;2024-02-15T06:50:47;77.57;;;71.70;;
2019;SDS011;1014;51.960;8.542;2024-02-15T06:53:14;73.40;;;68.20;;
2019;SDS011;1014;51.960;8.542;2024-02-15T06:55:42;75.57;;;70.23;;
2019;SDS011;1014;51.960;8.542;2024-02-15T06:58:09;73.93;;;68.77;;
2019;SDS011;1014;51.960;8.542;2024-02-15T07:00:40;78.07;;;71.97;;
2019;SDS011;1014;51.960;8.542;2024-02-15T07:03:07;74.40;;;69.00;;
2019;SDS011;1014;51.960;8.542;2024-02-15T07:05:35;75.57;;;69.17;;
2019;SDS011;1014;51.960;8.542;2024-02-15T07:08:04;64.33;;;59.73;;
2019;SDS011;1014;51.960;8.542;2024-02-15T07:10:33;73.67;;;68.20;;
2019;SDS011;1014;51.960;8.542;2024-02-15T07:13:00;75.00;;;69.30;;
2019;SDS011;1014;51.960;8.542;2024-02-15T07:15:27;73.27;;;67.97;;
2019;SDS011;1014;51.960;8.542;2024-02-15T07:17:58;79.47;;;74.10;;
2019;SDS011;1014;51.960;8.542;2024-02-15T07:20:26;77.87;;;72.20;;
2019;SDS011;1014;51.960;8.542;2024-02-15T07:22:53;73.73;;;68.67;;
2019;SDS011;1014;51.960;8.542;2024-02-15T07:25:20;75.20;;;69.90;;
2019;SDS011;1014;51.960;8.542;2024-02-15T07:27:47;72.40;;;67.60;;
2019;SDS011;1014;51.960;8.542;2024-02-15T07:30:14;76.30;;;71.20;;
2019;SDS011;1014;51.960;8.542;2024-02-15T07:32:41;76.43;;;71.43;;
2019;SDS011;1014;51.960;8.542;2024-02-15T07:35:09;74.53;;;69.33;;
2019;SDS011;1014;51.960;8.542;2024-02-15T07:37:36;75.50;;;70.20;;
2019;SDS011;1014;51.960;8.542;2024-02-15T07:40:04;71.30;;;66.50;;
2019;SDS011;1014;51.960;8.542;2024-02-15T07:42:33;70.63;;;65.63;;
2019;SDS011;1014;51.960;8.542;2024-02-15T07:45:00;74.50;;;69.80;;
2019;SDS011;1014;51.960;8.542;2024-02-15T07:47:31;70.57;;;66.00;;
2019;SDS011;1014;51.960;8.542;2024-02-15T07:49:58;71.60;;;66.80;;
2019;SDS011;1014;51.960;8.542;2024-02-15T07:52:27;68.77;;;64.20;;
2019;SDS011;1014;51.960;8.542;2024-02-15T07:54:55;70.90;;;66.20;;
2019;SDS011;1014;51.960;8.542;2024-02-15T07:59:58;65.20;;;60.70;;
2019;SDS011;1014;51.960;8.542;2024-02-15T08:02:25;62.20;;;57.80;;
2019;SDS011;1014;51.960;8.542;2024-02-15T08:04:53;65.60;;;61.20;;
2019;SDS011;1014;51.960;8.542;2024-02-15T08:07:20;64.40;;;60.00;;
2019;SDS011;1014;51.960;8.542;2024-02-15T08:09:48;64.30;;;60.03;;
2019;SDS011;1014;51.960;8.542;2024-02-15T08:12:16;63.97;;;59.10;;
2019;SDS011;1014;51.960;8.542;2024-02-15T08:14:44;64.53;;;59.73;;
2019;SDS011;1014;51.960;8.542;2024-02-15T08:17:11;62.43;;;58.27;;
2019;SDS011;1014;51.960;8.542;2024-02-15T08:19:39;67.10;;;62.43;;
2019;SDS011;1014;51.960;8.542;2024-02-15T08:22:07;65.83;;;61.60;;
2019;SDS011;1014;51.960;8.542;2024-02-15T08:24:34;68.53;;;64.17;;
2019;SDS011;1014;51.960;8.542;2024-02-15T08:27:03;63.90;;;59.60;;
2019;SDS011;1014;51.960;8.542;2024-02-15T08:29:30;67.53;;;62.93;;
2019;SDS011;1014;51.960;8.542;2024-02-15T08:31:58;61.63;;;57.50;;
2019;SDS011;1014;51.960;8.542;2024-02-15T08:34:25;57.33;;;53.83;;
2019;SDS011;1014;51.960;8.542;2024-02-15T08:36:53;59.87;;;55.80;;
2019;SDS011;1014;51.960;8.542;2024-02-15T08:39:20;59.70;;;55.00;;
2019;SDS011;1014;51.960;8.542;2024-02-15T08:41:47;63.80;;;59.77;;
2019;SDS011;1014;51.960;8.542;2024-02-15T08:44:19;63.53;;;58.90;;
2019;SDS011;1014;51.960;8.542;2024-02-15T08:46:46;60.23;;;56.30;;
2019;SDS011;1014;51.960;8.542;2024-02-15T08:49:14;62.27;;;58.23;;
2019;SDS011;1014;51.960;8.542;2024-02-15T08:51:41;62.33;;;58.10;;
2019;SDS011;1014;51.960;8.542;2024-02-15T08:54:08;65.10;;;60.60;;
2019;SDS011;1014;51.960;8.542;2024-02-15T08:56:35;69.47;;;64.83;;
2019;SDS011;1014;51.960;8.542;2024-02-15T08:59:02;65.37;;;61.17;;
2019;SDS011;1014;51.960;8.542;2024-02-15T09:01:30;59.33;;;55.27;;
2019;SDS011;1014;51.960;8.542;2024-02-15T09:03:58;64.70;;;60.70;;
2019;SDS011;1014;51.960;8.542;2024-02-15T09:06:26;62.27;;;57.17;;
2019;SDS011;1014;51.960;8.542;2024-02-15T09:08:53;60.83;;;56.97;;
2019;SDS011;1014;51.960;8.542;2024-02-15T09:11:19;58.40;;;54.50;;
2019;SDS011;1014;51.960;8.542;2024-02-15T09:13:48;58.07;;;54.30;;
2019;SDS011;1014;51.960;8.542;2024-02-15T09:16:16;61.37;;;57.40;;
2019;SDS011;1014;51.960;8.542;2024-02-15T09:18:47;60.87;;;56.90;;
2019;SDS011;1014;51.960;8.542;2024-02-15T09:21:14;58.23;;;54.13;;
2019;SDS011;1014;51.960;8.542;2024-02-15T09:23:41;58.53;;;54.40;;
2019;SDS011;1014;51.960;8.542;2024-02-15T09:26:08;55.20;;;51.90;;
2019;SDS011;1014;51.960;8.542;2024-02-15T09:28:35;55.63;;;51.83;;
2019;SDS011;1014;51.960;8.542;2024-02-15T09:31:02;58.60;;;54.27;;
2019;SDS011;1014;51.960;8.542;2024-02-15T09:33:29;61.67;;;57.97;;
2019;SDS011;1014;51.960;8.542;2024-02-15T09:35:58;56.10;;;52.63;;
2019;SDS011;1014;51.960;8.542;2024-02-15T09:38:25;57.90;;;54.20;;
2019;SDS011;1014;51.960;8.542;2024-02-15T09:40:52;56.43;;;53.33;;
2019;SDS011;1014;51.960;8.542;2024-02-15T09:43:20;55.83;;;52.10;;
2019;SDS011;1014;51.960;8.542;2024-02-15T09:45:51;56.53;;;53.37;;
2019;SDS011;1014;51.960;8.542;2024-02-15T09:48:18;56.70;;;53.10;;
2019;SDS011;1014;51.960;8.542;2024-02-15T09:50:48;54.60;;;51.20;;
2019;SDS011;1014;51.960;8.542;2024-02-15T09:53:19;54.37;;;50.97;;
2019;SDS011;1014;51.960;8.542;2024-02-15T09:55:47;57.00;;;53.27;;
2019;SDS011;1014;51.960;8.542;2024-02-15T09:58:15;64.20;;;60.20;;
2019;SDS011;1014;51.960;8.542;2024-02-15T10:00:42;61.80;;;57.80;;
2019;SDS011;1014;51.960;8.542;2024-02-15T10:03:11;67.47;;;63.03;;
2019;SDS011;1014;51.960;8.542;2024-02-15T10:05:41;60.93;;;56.77;;
2019;SDS011;1014;51.960;8.542;2024-02-15T10:08:08;61.53;;;57.33;;
2019;SDS011;1014;51.960;8.542;2024-02-15T10:10:37;60.10;;;55.87;;
2019;SDS011;1014;51.960;8.542;2024-02-15T10:13:04;61.77;;;57.30;;
2019;SDS011;1014;51.960;8.542;2024-02-15T10:15:31;61.50;;;57.50;;
2019;SDS011;1014;51.960;8.542;2024-02-15T10:18:00;59.70;;;55.77;;
2019;SDS011;1014;51.960;8.542;2024-02-15T10:20:27;58.73;;;54.37;;
2019;SDS011;1014;51.960;8.542;2024-02-15T10:22:58;58.60;;;54.83;;
2019;SDS011;1014;51.960;8.542;2024-02-15T10:25:35;57.60;;;53.70;;
2019;SDS011;1014;51.960;8.542;2024-02-15T10:28:04;58.47;;;54.93;;
2019;SDS011;1014;51.960;8.542;2024-02-15T10:30:33;58.27;;;54.77;;
2019;SDS011;1014;51.960;8.542;2024-02-15T10:33:00;61.93;;;57.60;;
2019;SDS011;1014;51.960;8.542;2024-02-15T10:35:27;60.80;;;57.00;;
2019;SDS011;1014;51.960;8.542;2024-02-15T10:38:04;64.47;;;60.47;;
2019;SDS011;1014;51.960;8.542;2024-02-15T10:40:32;59.27;;;55.27;;
2019;SDS011;1014;51.960;8.542;2024-02-15T10:42:59;57.30;;;53.50;;
2019;SDS011;1014;51.960;8.542;2024-02-15T10:45:31;57.57;;;53.50;;
2019;SDS011;1014;51.960;8.542;2024-02-15T10:47:58;56.10;;;52.60;;
2019;SDS011;1014;51.960;8.542;2024-02-15T10:50:25;58.87;;;55.10;;
2019;SDS011;1014;51.960;8.542;2024-02-15T10:52:54;59.37;;;55.40;;
2019;SDS011;1014;51.960;8.542;2024-02-15T10:55:22;58.50;;;54.90;;
2019;SDS011;1014;51.960;8.542;2024-02-15T10:57:50;60.07;;;56.27;;
2019;SDS011;1014;51.960;8.542;2024-02-15T11:00:19;57.33;;;53.63;;
2019;SDS011;1014;51.960;8.542;2024-02-15T11:02:54;57.33;;;53.20;;
2019;SDS011;1014;51.960;8.542;2024-02-15T11:05:26;59.77;;;55.67;;
2019;SDS011;1014;51.960;8.542;2024-02-15T11:07:57;59.73;;;55.90;;
2019;SDS011;1014;51.960;8.542;2024-02-15T11:10:24;58.63;;;54.80;;
2019;SDS011;1014;51.960;8.542;2024-02-15T11:12:52;55.47;;;51.97;;
2019;SDS011;1014;51.960;8.542;2024-02-15T11:18:06;59.77;;;55.80;;
2019;SDS011;1014;51.960;8.542;2024-02-15T11:20:45;59.67;;;55.70;;
2019;SDS011;1014;51.960;8.542;2024-02-15T11:23:23;59.87;;;56.17;;
2019;SDS011;1014;51.960;8.542;2024-02-15T11:25:51;57.87;;;54.27;;
2019;SDS011;1014;51.960;8.542;2024-02-15T11:28:34;61.77;;;57.70;;
2019;SDS011;1014;51.960;8.542;2024-02-15T11:31:03;60.67;;;56.83;;
2019;SDS011;1014;51.960;8.542;2024-02-15T11:33:32;61.27;;;57.27;;
2019;SDS011;1014;51.960;8.542;2024-02-15T11:36:03;57.93;;;54.20;;
2019;SDS011;1014;51.960;8.542;2024-02-15T11:38:31;59.73;;;55.93;;
2019;SDS011;1014;51.960;8.542;2024-02-15T11:40:59;61.13;;;57.13;;
2019;SDS011;1014;51.960;8.542;2024-02-15T11:46:14;54.40;;;50.80;;
2019;SDS011;1014;51.960;8.542;2024-02-15T11:48:44;56.00;;;52.60;;
2019;SDS011;1014;51.960;8.542;2024-02-15T11:51:15;53.83;;;50.27;;
2019;SDS011;1014;51.960;8.542;2024-02-15T11:53:57;51.70;;;48.50;;
2019;SDS011;1014;51.960;8.542;2024-02-15T11:56:25;49.13;;;46.30;;
2019;SDS011;1014;51.960;8.542;2024-02-15T11:59:01;55.37;;;52.27;;
2019;SDS011;1014;51.960;8.542;2024-02-15T12:01:30;58.77;;;55.27;;
2019;SDS011;1014;51.960;8.542;2024-02-15T12:04:16;56.87;;;52.83;;
2019;SDS011;1014;51.960;8.542;2024-02-15T12:07:02;51.83;;;48.87;;
2019;SDS011;1014;51.960;8.542;2024-02-15T12:09:47;52.37;;;49.00;;
2019;SDS011;1014;51.960;8.542;2024-02-15T12:12:32;46.37;;;43.33;;
2019;SDS011;1014;51.960;8.542;2024-02-15T12:15:17;48.93;;;45.43;;
2019;SDS011;1014;51.960;8.542;2024-02-15T12:18:14;49.87;;;46.73;;
2019;SDS011;1014;51.960;8.542;2024-02-15T12:21:01;49.27;;;46.03;;
2019;SDS011;1014;51.960;8.542;2024-02-15T12:23:29;48.20;;;44.80;;
2019;SDS011;1014;51.960;8.542;2024-02-15T12:25:58;48.50;;;45.60;;
2019;SDS011;1014;51.960;8.542;2024-02-15T12:28:25;48.60;;;45.70;;
2019;SDS011;1014;51.960;8.542;2024-02-15T12:30:54;47.70;;;44.60;;
2019;SDS011;1014;51.960;8.542;2024-02-15T12:33:22;49.23;;;45.53;;
2019;SDS011;1014;51.960;8.542;2024-02-15T12:35:49;51.40;;;48.10;;
2019;SDS011;1014;51.960;8.542;2024-02-15T12:38:18;46.43;;;43.47;;
2019;SDS011;1014;51.960;8.542;2024-02-15T12:40:46;50.13;;;47.23;;
2019;SDS011;1014;51.960;8.542;2024-02-15T12:43:13;48.27;;;45.07;;
2019;SDS011;1014;51.960;8.542;2024-02-15T12:45:40;48.30;;;45.40;;
2019;SDS011;1014;51.960;8.542;2024-02-15T12:48:08;48.13;;;45.10;;
2019;SDS011;1014;51.960;8.542;2024-02-15T12:50:35;49.13;;;45.97;;
2019;SDS011;1014;51.960;8.542;2024-02-15T12:53:02;48.40;;;45.03;;
2019;SDS011;1014;51.960;8.542;2024-02-15T12:55:32;46.63;;;43.50;;
2019;SDS011;1014;51.960;8.542;2024-02-15T12:58:00;51.23;;;47.93;;
2019;SDS011;1014;51.960;8.542;2024-02-15T13:00:29;47.27;;;44.10;;
2019;SDS011;1014;51.960;8.542;2024-02-15T13:02:58;47.67;;;44.57;;
2019;SDS011;1014;51.960;8.542;2024-02-15T13:05:28;50.90;;;47.47;;
2019;SDS011;1014;51.960;8.542;2024-02-15T13:07:55;50.77;;;47.20;;
2019;SDS011;1014;51.960;8.542;2024-02-15T13:10:23;50.60;;;47.33;;
2019;SDS011;1014;51.960;8.542;2024-02-15T13:12:52;51.17;;;47.77;;
2019;SDS011;1014;51.960;8.542;2024-02-15T13:15:20;53.23;;;49.43;;
2019;SDS011;1014;51.960;8.542;2024-02-15T13:17:52;50.57;;;47.37;;
2019;SDS011;1014;51.960;8.542;2024-02-15T13:20:20;50.20;;;46.90;;
2019;SDS011;1014;51.960;8.542;2024-02-15T13:22:57;44.73;;;41.93;;
2019;SDS011;1014;51.960;8.542;2024-02-15T13:25:26;46.37;;;43.47;;
2019;SDS011;1014;51.960;8.542;2024-02-15T13:27:56;48.23;;;44.83;;
2019;SDS011;1014;51.960;8.542;2024-02-15T13:30:23;47.40;;;44.40;;
2019;SDS011;1014;51.960;8.542;2024-02-15T13:32:52;49.60;;;46.40;;
2019;SDS011;1014;51.960;8.542;2024-02-15T13:35:20;49.23;;;46.03;;
2019;SDS011;1014;51.960;8.542;2024-02-15T13:37:49;50.53;;;47.20;;
2019;SDS011;1014;51.960;8.542;2024-02-15T13:40:17;50.70;;;47.10;;
2019;SDS011;1014;51.960;8.542;2024-02-15T13:42:48;47.80;;;44.70;;
2019;SDS011;1014;51.960;8.542;2024-02-15T13:45:19;48.07;;;45.03;;
2019;SDS011;1014;51.960;8.542;2024-02-15T13:47:47;46.60;;;43.60;;
2019;SDS011;1014;51.960;8.542;2024-02-15T13:50:15;49.33;;;46.00;;
2019;SDS011;1014;51.960;8.542;2024-02-15T13:52:42;48.50;;;45.50;;
2019;SDS011;1014;51.960;8.542;2024-02-15T13:55:10;49.00;;;45.57;;
2019;SDS011;1014;51.960;8.542;2024-02-15T13:57:37;52.07;;;48.67;;
2019;SDS011;1014;51.960;8.542;2024-02-15T14:00:04;49.93;;;46.70;;
2019;SDS011;1014;51.960;8.542;2024-02-15T14:02:39;49.93;;;46.83;;
2019;SDS011;1014;51.960;8.542;2024-02-15T14:05:06;52.17;;;49.03;;
2019;SDS011;1014;51.960;8.542;2024-02-15T14:07:34;50.93;;;47.73;;
2019;SDS011;1014;51.960;8.542;2024-02-15T14:10:01;46.90;;;44.00;;
2019;SDS011;1014;51.960;8.542;2024-02-15T14:12:28;47.27;;;44.13;;
2019;SDS011;1014;51.960;8.542;2024-02-15T14:14:55;50.63;;;47.23;;
2019;SDS011;1014;51.960;8.542;2024-02-15T14:17:22;49.27;;;46.13;;
2019;SDS011;1014;51.960;8.542;2024-02-15T14:19:50;50.30;;;46.93;;
2019;SDS011;1014;51.960;8.542;2024-02-15T14:22:17;47.53;;;44.63;;
2019;SDS011;1014;51.960;8.542;2024-02-15T14:24:48;46.93;;;44.10;;
2019;SDS011;1014;51.960;8.542;2024-02-15T14:27:15;46.03;;;43.10;;
2019;SDS011;1014;51.960;8.542;2024-02-15T14:29:42;50.03;;;47.03;;
2019;SDS011;1014;51.960;8.542;2024-02-15T14:32:31;45.77;;;43.07;;
2019;SDS011;1014;51.960;8.542;2024-02-15T14:35:18;44.63;;;41.83;;
2019;SDS011;1014;51.960;8.542;2024-02-15T14:37:45;47.87;;;44.87;;
2019;SDS011;1014;51.960;8.542;2024-02-15T14:40:12;46.17;;;43.30;;
2019;SDS011;1014;51.960;8.542;2024-02-15T14:42:40;46.07;;;43.10;;
2019;SDS011;1014;51.960;8.542;2024-02-15T14:45:08;47.43;;;44.67;;
2019;SDS011;1014;51.960;8.542;2024-02-15T14:47:35;46.00;;;43.30;;
2019;SDS011;1014;51.960;8.542;2024-02-15T14:50:02;47.27;;;44.47;;
2019;SDS011;1014;51.960;8.542;2024-02-15T14:52:30;47.33;;;44.53;;
2019;SDS011;1014;51.960;8.542;2024-02-15T14:54:57;47.13;;;44.47;;
2019;SDS011;1014;51.960;8.542;2024-02-15T14:57:24;46.43;;;43.57;;
2019;SDS011;1014;51.960;8.542;2024-02-15T14:59:51;46.93;;;44.13;;
2019;SDS011;1014;51.960;8.542;2024-02-15T15:02:18;49.10;;;46.13;;
2019;SDS011;1014;51.960;8.542;2024-02-15T15:04:45;49.40;;;46.60;;
2019;SDS011;1014;51.960;8.542;2024-02-15T15:07:45;51.23;;;48.27;;
2019;SDS011;1014;51.960;8.542;2024-02-15T15:10:29;47.07;;;44.10;;